Time;durP1;ratioP1;P1;durP2;ratioP2;P2;SDS_P1;SDS_P2;PMS_P1;PMS_P2;Temp;Humidity;BMP_temperature;BMP_pressure;BME280_temperature;BME280_humidity;BME280_pressure;Samples;Min_cycle;Max_cycle;Signal;HPM_P1;HPM_P2
2022/06/16 00:02:18;;;;;;;16.48;8.28;;;;;;;9.86;85.81;95086.68;1725208;83;21442;-50
2022/06/16 00:04:46;;;;;;;15.63;8.78;;;;;;;9.89;85.69;95073.44;1747743;82;21209;-50
2022/06/16 00:07:15;;;;;;;11.08;8.08;;;;;;;9.89;85.54;95078.34;1714934;83;21010;-49
2022/06/16 00:09:44;;;;;;;15.63;10.58;;;;;;;9.85;85.33;95083.17;1744506;82;21407;-49
2022/06/16 00:12:12;;;;;;;14.10;9.48;;;;;;;9.82;85.52;95083.26;1737578;82;20991;-51
2022/06/16 00:14:41;;;;;;;15.75;9.58;;;;;;;9.82;85.68;95083.26;1707476;83;21005;-49
2022/06/16 00:17:09;;;;;;;13.05;10.18;;;;;;;9.85;85.80;95078.27;1735402;82;21155;-49
2022/06/16 00:19:37;;;;;;;12.68;9.73;;;;;;;9.88;85.97;95073.27;1734938;82;20964;-49
2022/06/16 00:22:06;;;;;;;10.30;8.70;;;;;;;9.92;85.87;95067.86;1735268;82;21562;-50
2022/06/16 00:24:34;;;;;;;14.73;8.75;;;;;;;9.98;85.65;95070.84;1735008;82;20999;-49
2022/06/16 00:27:03;;;;;;;12.20;8.95;;;;;;;10.02;85.33;95076.42;1735192;82;21446;-49
2022/06/16 00:29:31;;;;;;;12.00;7.40;;;;;;;10.05;85.16;95068.70;1735143;82;21346;-50
2022/06/16 00:31:58;;;;;;;15.80;8.35;;;;;;;10.10;84.70;95068.75;1734719;82;21284;-49
2022/06/16 00:34:26;;;;;;;11.70;8.90;;;;;;;10.11;84.66;95067.54;1735035;82;20971;-49
2022/06/16 00:36:54;;;;;;;9.88;8.33;;;;;;;10.13;84.79;95070.66;1735729;82;20995;-49
2022/06/16 00:39:23;;;;;;;9.50;7.53;;;;;;;10.10;84.75;95077.00;1735132;82;20995;-49
2022/06/16 00:41:51;;;;;;;11.22;8.23;;;;;;;9.99;84.61;95077.27;1735227;82;21223;-50
2022/06/16 00:44:33;;;;;;;11.68;7.90;;;;;;;9.93;84.84;95068.61;1735030;82;21000;-48
2022/06/16 00:47:01;;;;;;;13.83;8.55;;;;;;;9.93;84.90;95067.23;1735366;82;21058;-48
2022/06/16 00:49:31;;;;;;;14.45;9.28;;;;;;;9.92;85.00;95066.48;1735001;82;21054;-49
2022/06/16 00:52:02;;;;;;;18.32;9.68;;;;;;;9.89;85.01;95061.86;1735201;82;20994;-49
2022/06/16 00:54:36;;;;;;;28.45;12.75;;;;;;;9.83;84.87;95061.45;1713396;82;21872;-52
2022/06/16 00:57:13;;;;;;;24.15;12.03;;;;;;;9.76;85.06;95060.27;1735144;82;21058;-48
2022/06/16 00:59:42;;;;;;;20.27;11.50;;;;;;;9.75;85.28;95068.33;1735129;82;21003;-49
2022/06/16 01:02:10;;;;;;;14.55;10.23;;;;;;;9.71;85.16;95060.78;1735072;82;21501;-49
2022/06/16 01:04:51;;;;;;;18.32;9.38;;;;;;;9.66;85.40;95056.58;1714722;82;21170;-50
2022/06/16 01:07:30;;;;;;;16.20;9.15;;;;;;;9.65;85.45;95054.28;1739330;82;20982;-49
2022/06/16 01:10:00;;;;;;;17.02;9.93;;;;;;;9.62;85.46;95048.29;1708384;84;21491;-49
2022/06/16 01:16:04;;;;;;;16.45;9.15;;;;;;;9.64;85.94;95050.00;1710475;83;21014;-49
2022/06/16 01:18:37;;;;;;;14.07;10.00;;;;;;;9.63;85.86;95049.21;1697377;83;21463;-52
2022/06/16 01:21:22;;;;;;;14.33;8.75;;;;;;;9.64;86.14;95043.13;1739878;82;21886;-48
2022/06/16 01:24:20;;;;;;;14.70;8.95;;;;;;;9.69;86.28;95042.59;1739803;82;21018;-49
2022/06/16 01:27:14;;;;;;;14.10;8.73;;;;;;;9.72;86.12;95043.09;1708656;84;21051;-50
2022/06/16 01:30:07;;;;;;;14.07;8.30;;;;;;;9.72;85.99;95041.13;1739573;82;21046;-50
2022/06/16 01:33:15;;;;;;;15.88;8.23;;;;;;;9.71;85.85;95039.59;1739871;82;21026;-50
2022/06/16 01:36:17;;;;;;;10.53;7.87;;;;;;;9.64;85.88;95039.02;1717808;82;21253;-48
2022/06/16 01:39:07;;;;;;;13.97;9.07;;;;;;;9.62;86.32;95046.30;1688966;84;20959;-50
2022/06/16 01:42:01;;;;;;;24.52;12.85;;;;;;;9.59;85.91;95047.79;1739817;82;20959;-50
2022/06/16 01:44:53;;;;;;;26.60;12.90;;;;;;;9.44;85.90;95047.37;1704196;84;21063;-50
2022/06/16 01:47:19;;;;;;;21.48;10.90;;;;;;;9.35;86.04;95039.58;1727615;83;21241;-49
2022/06/16 01:49:51;;;;;;;15.18;9.20;;;;;;;9.28;86.08;95038.41;1709183;83;21796;-50
2022/06/16 01:52:24;;;;;;;12.43;8.78;;;;;;;9.26;86.27;95045.69;1727011;82;20979;-50
2022/06/16 01:55:00;;;;;;;14.98;8.65;;;;;;;9.24;86.38;95036.36;1727081;82;21455;-48
2022/06/16 01:57:44;;;;;;;11.75;8.35;;;;;;;9.24;86.53;95040.47;1727894;83;21577;-48
2022/06/16 02:00:19;;;;;;;16.62;8.40;;;;;;;9.24;86.76;95045.34;1709850;83;21460;-49
2022/06/16 02:02:55;;;;;;;10.08;7.55;;;;;;;9.25;86.76;95044.76;1727709;83;21121;-51
2022/06/16 02:05:43;;;;;;;9.15;7.97;;;;;;;9.22;86.70;95049.75;1712806;83;21517;-50
2022/06/16 02:08:18;;;;;;;12.47;8.50;;;;;;;9.17;86.66;95039.27;1727947;83;21043;-51
2022/06/16 02:10:54;;;;;;;10.08;7.55;;;;;;;9.13;87.11;95040.75;1727319;82;21572;-53
2022/06/16 02:13:27;;;;;;;11.75;7.95;;;;;;;9.16;87.16;95047.33;1727252;82;21050;-52
2022/06/16 02:16:08;;;;;;;;;;;;;;;9.15;86.71;95054.02;1690041;84;20971;-50
2022/06/16 02:18:40;;;;;;;11.15;8.28;;;;;;;9.16;86.42;95046.74;1687596;85;20211;-53
2022/06/16 02:21:35;;;;;;;16.93;9.20;;;;;;;9.17;86.23;95046.13;1715787;83;21097;-49
2022/06/16 02:24:04;;;;;;;14.18;8.13;;;;;;;9.16;86.84;95041.84;1687265;85;21593;-50
2022/06/16 02:26:32;;;;;;;8.65;7.85;;;;;;;9.19;86.57;95040.97;1687170;85;21030;-52
2022/06/16 02:29:03;;;;;;;9.53;7.15;;;;;;;9.18;85.96;95033.94;1687251;85;21874;-51
2022/06/16 02:31:53;;;;;;;10.88;7.45;;;;;;;9.15;85.43;95047.16;1686681;85;21011;-51
2022/06/16 02:34:42;;;;;;;8.33;6.50;;;;;;;9.09;85.37;95040.66;1686909;85;21057;-51
2022/06/16 02:37:47;;;;;;;8.98;7.17;;;;;;;9.09;85.25;95046.90;1687679;85;21518;-51
2022/06/16 02:40:29;;;;;;;14.13;8.08;;;;;;;9.08;85.34;95043.23;1687171;85;21052;-53
2022/06/16 02:43:37;;;;;;;11.28;7.70;;;;;;;9.06;85.69;95053.87;1687243;85;21178;-53
2022/06/16 02:46:16;;;;;;;10.95;6.60;;;;;;;9.04;85.24;95042.55;1687176;85;21515;-53
2022/06/16 02:48:52;;;;;;;8.65;6.53;;;;;;;8.96;85.60;95043.91;1643208;85;21566;-52
2022/06/16 02:51:40;;;;;;;10.05;6.40;;;;;;;8.91;86.06;95043.81;1687080;85;21074;-51
2022/06/16 02:54:20;;;;;;;12.70;7.22;;;;;;;8.96;86.24;95048.81;1687347;85;21057;-52
2022/06/16 02:57:35;;;;;;;7.72;6.37;;;;;;;8.99;86.47;95051.28;1687177;85;22838;-50
2022/06/16 03:00:08;;;;;;;11.08;7.30;;;;;;;9.00;86.32;95045.96;1687089;85;21076;-50
2022/06/16 03:02:38;;;;;;;15.38;6.42;;;;;;;9.06;86.69;95049.14;1687140;85;20995;-48
2022/06/16 03:05:08;;;;;;;9.15;5.95;;;;;;;9.11;86.34;95051.97;1687584;85;20958;-50
2022/06/16 03:07:36;;;;;;;9.10;7.08;;;;;;;9.11;86.17;95043.12;1653261;85;21589;-50
2022/06/16 03:10:07;;;;;;;13.03;7.58;;;;;;;9.09;85.55;95046.14;1675695;84;21177;-51
2022/06/16 03:12:36;;;;;;;12.47;7.45;;;;;;;9.04;85.27;95046.67;1667189;86;21436;-51
2022/06/16 03:15:06;;;;;;;13.85;7.20;;;;;;;8.99;85.32;95048.53;1701370;83;21088;-50
2022/06/16 03:17:34;;;;;;;11.48;6.92;;;;;;;8.99;85.22;95043.84;1753512;81;20983;-49
2022/06/16 03:20:02;;;;;;;15.32;6.70;;;;;;;8.99;85.09;95048.53;1723364;83;21470;-49
2022/06/16 03:22:31;;;;;;;14.03;7.80;;;;;;;8.98;85.41;95048.37;1723337;81;21830;-48
2022/06/16 03:24:59;;;;;;;12.37;6.67;;;;;;;9.05;85.87;95048.21;1752882;81;21037;-49
2022/06/16 03:27:27;;;;;;;9.58;6.33;;;;;;;9.14;85.69;95041.50;1753057;81;20970;-49
2022/06/16 03:29:57;;;;;;;13.20;6.78;;;;;;;9.21;85.24;95047.58;1723180;83;21047;-49
2022/06/16 03:32:25;;;;;;;18.62;6.70;;;;;;;9.26;84.87;95044.31;1723628;81;20956;-48
2022/06/16 03:34:55;;;;;;;7.47;5.95;;;;;;;9.34;84.99;95043.53;1702336;83;21240;-48
2022/06/16 03:37:24;;;;;;;11.68;7.30;;;;;;;9.45;84.94;95044.80;1724422;81;21420;-49
2022/06/16 03:39:55;;;;;;;12.47;7.12;;;;;;;9.56;84.73;95043.92;1723381;83;21038;-49
2022/06/16 03:42:23;;;;;;;13.45;5.92;;;;;;;9.68;84.58;95043.22;1753082;81;21070;-49
2022/06/16 03:44:51;;;;;;;10.32;6.22;;;;;;;9.77;84.13;95044.72;1702833;83;21565;-49
2022/06/16 03:47:20;;;;;;;12.30;6.45;;;;;;;9.80;83.92;95047.96;1752856;81;21851;-50
2022/06/16 03:49:49;;;;;;;22.65;8.70;;;;;;;9.87;83.93;95047.00;1722829;83;20971;-49
2022/06/16 03:52:17;;;;;;;20.05;9.08;;;;;;;9.95;83.69;95045.61;1752912;81;21415;-49
2022/06/16 03:54:48;;;;;;;15.78;7.03;;;;;;;10.00;83.69;95044.45;1680113;83;21112;-49
2022/06/16 03:57:17;;;;;;;18.12;6.95;;;;;;;10.10;83.78;95042.63;1753745;81;21401;-49
2022/06/16 03:59:46;;;;;;;11.75;6.85;;;;;;;10.20;83.81;95040.95;1723068;83;21513;-49
2022/06/16 04:02:15;;;;;;;11.95;6.45;;;;;;;10.33;83.74;95039.63;1751252;81;20998;-49
2022/06/16 04:04:43;;;;;;;10.63;6.97;;;;;;;10.49;83.31;95036.16;1702515;83;21055;-51
2022/06/16 04:07:11;;;;;;;12.60;6.53;;;;;;;10.60;82.88;95031.70;1746243;81;21022;-50
2022/06/16 04:09:41;;;;;;;13.83;6.90;;;;;;;10.69;82.39;95033.20;1689162;84;21014;-50
2022/06/16 04:12:09;;;;;;;8.90;6.30;;;;;;;10.75;82.18;95030.81;1662518;84;21174;-50
2022/06/16 04:14:38;;;;;;;12.70;6.00;;;;;;;10.84;82.16;95028.94;1692088;84;21030;-50
2022/06/16 04:17:09;;;;;;;9.68;5.80;;;;;;;10.97;81.83;95026.20;1737225;82;21090;-49
2022/06/16 04:20:11;;;;;;;9.15;5.60;;;;;;;11.13;81.36;95024.69;1691295;84;21021;-49
2022/06/16 04:22:11;;;;;;;8.23;5.62;;;;;;;11.24;81.05;95028.62;1733021;82;21027;-51
2022/06/16 04:24:42;;;;;;;8.73;6.37;;;;;;;11.32;80.78;95026.41;1692023;84;21131;-54
2022/06/16 04:27:11;;;;;;;12.18;6.55;;;;;;;11.34;80.71;95035.75;1692159;84;21518;-53
2022/06/16 04:29:39;;;;;;;8.43;6.47;;;;;;;11.36;80.17;95026.43;1720976;83;21478;-52
2022/06/16 04:32:08;;;;;;;7.03;6.08;;;;;;;11.38;80.11;95024.00;1692045;84;21101;-51
2022/06/16 04:34:38;;;;;;;12.55;6.67;;;;;;;11.46;80.12;95022.55;1690369;84;21087;-51
2022/06/16 04:37:07;;;;;;;7.92;6.53;;;;;;;11.55;79.81;95021.24;1692539;84;21140;-50
2022/06/16 04:39:35;;;;;;;9.68;6.83;;;;;;;11.67;79.81;95021.06;1692791;84;20982;-48
2022/06/16 04:42:04;;;;;;;6.70;5.83;;;;;;;11.81;79.54;95020.56;1692354;84;21045;-49
2022/06/16 04:44:34;;;;;;;8.73;6.65;;;;;;;11.96;79.09;95014.11;1692398;84;21049;-49
2022/06/16 04:47:06;;;;;;;7.95;5.83;;;;;;;12.04;78.24;95014.63;1692320;83;20962;-51
2022/06/16 04:49:37;;;;;;;8.53;5.95;;;;;;;12.08;77.75;95020.15;1692426;84;21616;-49
2022/06/16 04:52:08;;;;;;;8.68;6.45;;;;;;;12.12;77.67;95006.23;1692016;84;21053;-50
2022/06/16 04:54:37;;;;;;;26.17;7.55;;;;;;;12.19;77.16;95012.27;1692505;84;21017;-50
2022/06/16 04:57:19;;;;;;;13.68;6.03;;;;;;;12.24;77.18;95010.92;1691493;84;21046;-49
2022/06/16 05:00:02;;;;;;;12.95;6.33;;;;;;;12.32;76.82;95007.45;1613167;84;21085;-50
2022/06/16 05:02:35;;;;;;;9.70;6.28;;;;;;;12.38;76.28;95011.14;1689644;84;21291;-50
2022/06/16 05:05:14;;;;;;;8.10;5.67;;;;;;;12.41;75.96;95003.97;1661294;84;21013;-50
2022/06/16 05:07:44;;;;;;;18.25;11.57;;;;;;;12.51;75.74;94998.04;1690742;84;21030;-49
2022/06/16 05:10:29;;;;;;;10.10;7.05;;;;;;;12.62;75.12;95002.52;1703971;82;21007;-51
2022/06/16 05:13:03;;;;;;;6.72;5.33;;;;;;;12.65;74.98;94998.25;1707011;82;21691;-50
2022/06/16 05:15:39;;;;;;;9.05;5.05;;;;;;;12.73;74.73;95001.50;1757375;81;21081;-51
2022/06/16 05:18:12;;;;;;;7.95;4.70;;;;;;;12.76;74.49;95002.75;1757542;81;21018;-50
2022/06/16 05:20:45;;;;;;;10.18;5.67;;;;;;;12.80;74.33;94999.83;1758620;81;21509;-51
2022/06/16 05:23:20;;;;;;;11.53;4.53;;;;;;;12.86;74.25;94999.41;1698518;83;21017;-49
2022/06/16 05:25:53;;;;;;;9.55;4.95;;;;;;;12.95;74.18;95000.23;1761096;81;20961;-50
2022/06/16 05:28:25;;;;;;;12.23;5.77;;;;;;;13.07;74.11;94997.19;1740788;82;21927;-50
2022/06/16 05:31:04;;;;;;;7.47;5.35;;;;;;;13.18;73.97;94998.89;1744421;82;21047;-52
2022/06/16 05:33:35;;;;;;;8.25;5.65;;;;;;;13.30;73.71;94998.00;1733576;82;21065;-49
2022/06/16 05:36:09;;;;;;;6.78;5.65;;;;;;;13.43;73.51;94993.11;1738887;82;21034;-48
2022/06/16 05:38:55;;;;;;;9.63;5.00;;;;;;;13.58;73.28;94989.88;1713651;83;21478;-49
2022/06/16 05:41:31;;;;;;;7.22;5.22;;;;;;;13.76;72.71;94991.27;1742134;82;22096;-52
2022/06/16 05:44:17;;;;;;;6.53;5.35;;;;;;;13.88;72.31;94984.81;1713244;83;21102;-49
2022/06/16 05:46:47;;;;;;;10.08;5.87;;;;;;;13.96;71.74;94984.67;1732143;82;20919;-52
2022/06/16 05:49:15;;;;;;;11.12;5.40;;;;;;;14.01;71.53;94990.33;1712688;83;21085;-50
2022/06/16 05:51:44;;;;;;;11.55;5.90;;;;;;;14.04;71.39;94981.73;1742940;82;21037;-49
2022/06/16 05:54:14;;;;;;;7.03;4.70;;;;;;;14.11;71.15;94978.63;1731552;82;21323;-50
2022/06/16 05:56:44;;;;;;;18.52;5.35;;;;;;;14.22;70.96;94978.33;1700372;83;21513;-53
2022/06/16 05:59:12;;;;;;;10.18;5.65;;;;;;;14.31;70.65;94975.55;1736934;81;21011;-56
2022/06/16 06:01:42;;;;;;;6.95;4.60;;;;;;;14.43;70.33;94976.59;1724583;81;21548;-51
2022/06/16 06:04:12;;;;;;;6.17;5.03;;;;;;;14.53;69.84;94974.71;1712428;82;21014;-52
2022/06/16 06:06:41;;;;;;;5.22;4.28;;;;;;;14.60;69.49;94977.92;1724562;81;21439;-50
2022/06/16 06:17:35;;;;;;;8.03;4.95;;;;;;;15.05;69.80;94974.18;1699441;83;21034;-52
2022/06/16 06:20:05;;;;;;;5.95;4.67;;;;;;;15.26;69.10;94973.91;1686337;82;21084;-49
2022/06/16 06:22:35;;;;;;;8.88;4.58;;;;;;;15.45;68.21;94969.03;1707889;82;21079;-55
2022/06/16 06:25:13;;;;;;;5.55;4.37;;;;;;;15.63;68.11;94971.67;1682634;83;21133;-53
2022/06/16 06:27:43;;;;;;;6.40;4.92;;;;;;;15.78;66.84;94971.88;1713635;81;21485;-55
2022/06/16 06:30:16;;;;;;;6.28;4.50;;;;;;;15.88;66.83;94966.38;1660846;83;21082;-53
2022/06/16 06:32:44;;;;;;;7.72;4.30;;;;;;;16.03;66.90;94970.55;1732085;81;21862;-52
2022/06/16 06:35:15;;;;;;;7.28;4.55;;;;;;;16.14;65.94;94958.28;1715833;82;21109;-54
2022/06/16 06:37:47;;;;;;;6.08;4.20;;;;;;;16.23;65.84;94959.56;1683229;83;21116;-56
2022/06/16 06:40:29;;;;;;;6.40;4.20;;;;;;;16.35;65.97;94957.30;1695835;81;21069;-50
2022/06/16 06:42:57;;;;;;;5.37;3.47;;;;;;;16.50;65.11;94944.18;1708037;82;21065;-54
2022/06/16 06:45:30;;;;;;;8.70;3.52;;;;;;;16.65;64.89;94949.10;1700139;82;21875;-56
2022/06/16 06:47:58;;;;;;;14.13;7.83;;;;;;;16.80;64.72;94944.91;1705260;82;21205;-52
2022/06/16 06:50:38;;;;;;;9.78;5.50;;;;;;;16.99;64.17;94935.08;1708418;82;21105;-52
2022/06/16 06:53:09;;;;;;;10.85;4.00;;;;;;;17.15;64.00;94940.89;1704494;82;21028;-53
2022/06/16 06:55:41;;;;;;;5.80;3.80;;;;;;;17.30;62.71;94938.05;1709335;82;21660;-52
2022/06/16 06:58:14;;;;;;;6.70;3.87;;;;;;;17.37;62.83;94939.05;1733027;80;21572;-56
2022/06/16 07:00:44;;;;;;;7.05;3.60;;;;;;;17.47;62.43;94939.06;1703433;82;21070;-52
2022/06/16 07:03:13;;;;;;;3.95;3.42;;;;;;;17.60;62.01;94936.06;1708804;82;21085;-54
2022/06/16 07:05:40;;;;;;;6.75;3.80;;;;;;;17.71;61.78;94927.86;1700388;81;20999;-53
2022/06/16 07:08:08;;;;;;;6.45;3.92;;;;;;;17.79;62.02;94923.39;1712118;83;21575;-53
2022/06/16 07:10:38;;;;;;;5.10;3.52;;;;;;;17.91;61.79;94921.48;1710972;82;21074;-52
2022/06/16 07:13:07;;;;;;;10.38;4.03;;;;;;;18.04;61.35;94916.31;1703578;82;21832;-55
2022/06/16 07:15:37;;;;;;;5.62;3.98;;;;;;;18.19;60.71;94914.33;1694335;83;21033;-54
2022/06/16 07:18:07;;;;;;;6.50;3.70;;;;;;;18.35;60.93;94912.36;1700845;82;21350;-55
2022/06/16 07:20:35;;;;;;;8.08;4.08;;;;;;;18.52;60.05;94906.91;1750826;80;21051;-53
2022/06/16 07:23:04;;;;;;;7.72;4.05;;;;;;;18.61;59.69;94904.70;1743127;81;21061;-53
2022/06/16 07:25:33;;;;;;;9.15;3.58;;;;;;;18.75;59.24;94901.63;1731906;81;21659;-53
2022/06/16 07:28:01;;;;;;;5.72;3.87;;;;;;;18.90;59.52;94894.67;1721341;81;21468;-56
2022/06/16 07:30:29;;;;;;;5.37;3.55;;;;;;;19.06;58.79;94891.22;1741445;81;21041;-51
2022/06/16 07:32:57;;;;;;;6.83;4.22;;;;;;;19.17;57.38;94884.33;1718382;81;21132;-53
2022/06/16 07:35:25;;;;;;;8.78;4.37;;;;;;;19.27;58.09;94891.23;1730504;81;21249;-51
2022/06/16 07:37:57;;;;;;;5.55;3.47;;;;;;;19.39;57.34;94887.86;1714110;82;20999;-55
2022/06/16 07:40:28;;;;;;;6.78;3.52;;;;;;;19.53;56.71;94886.27;1694143;82;22182;-51
2022/06/16 07:43:00;;;;;;;5.87;3.25;;;;;;;19.69;56.32;94880.61;1759929;80;21553;-52
2022/06/16 07:45:29;;;;;;;6.40;3.75;;;;;;;19.83;55.93;94884.61;1734401;81;21032;-49
2022/06/16 07:48:07;;;;;;;6.67;3.80;;;;;;;19.97;55.13;94882.23;1695905;83;21143;-56
2022/06/16 07:50:48;;;;;;;6.25;3.37;;;;;;;20.14;55.49;94871.86;1701454;82;21049;-52
2022/06/16 07:53:17;;;;;;;3.47;2.90;;;;;;;20.31;54.08;94867.05;1720401;81;20979;-56
2022/06/16 07:55:46;;;;;;;8.05;3.60;;;;;;;20.44;55.05;94864.53;1697971;81;21030;-51
2022/06/16 07:58:15;;;;;;;5.08;3.60;;;;;;;20.60;54.87;94860.97;1727658;80;21096;-53
2022/06/16 08:00:43;;;;;;;4.45;2.90;;;;;;;20.67;53.29;94860.45;1697951;81;21226;-52
2022/06/16 08:03:11;;;;;;;4.37;2.42;;;;;;;20.78;52.46;94861.19;1737671;81;21126;-49
2022/06/16 08:05:39;;;;;;;5.87;2.90;;;;;;;20.85;50.81;94851.56;1744957;80;21167;-52
2022/06/16 08:08:07;;;;;;;11.08;2.75;;;;;;;20.96;52.43;94854.34;1731925;80;20980;-50
2022/06/16 08:10:35;;;;;;;8.28;4.12;;;;;;;21.10;52.91;94851.91;1707247;82;22165;-51
2022/06/16 08:13:04;;;;;;;9.98;3.60;;;;;;;21.25;52.55;94858.72;1713132;82;21815;-55
2022/06/16 08:15:33;;;;;;;5.20;3.40;;;;;;;21.47;51.93;94846.69;1678461;83;21028;-54
2022/06/16 08:18:02;;;;;;;8.13;3.27;;;;;;;21.69;50.14;94858.56;1670280;83;21091;-52
2022/06/16 08:20:33;;;;;;;6.95;3.10;;;;;;;21.76;49.13;94855.23;1667785;85;21554;-54
2022/06/16 08:23:01;;;;;;;7.30;2.70;;;;;;;21.79;48.55;94852.02;1714669;82;21132;-54
2022/06/16 08:25:29;;;;;;;5.70;2.95;;;;;;;21.86;48.11;94847.30;1700185;82;21157;-54
2022/06/16 08:27:58;;;;;;;4.25;2.33;;;;;;;21.95;46.54;94849.77;1684527;81;21135;-57
2022/06/16 08:30:26;;;;;;;3.12;2.33;;;;;;;22.01;47.18;94843.52;1662892;83;21059;-52
2022/06/16 08:32:54;;;;;;;9.53;2.85;;;;;;;22.12;45.90;94836.54;1679957;83;22134;-53
2022/06/16 08:35:24;;;;;;;5.67;2.40;;;;;;;22.33;46.45;94843.27;1697916;83;21165;-56
2022/06/16 08:37:52;;;;;;;5.58;2.27;;;;;;;22.50;45.06;94838.32;1701749;81;21321;-50
2022/06/16 08:40:21;;;;;;;5.10;2.52;;;;;;;22.53;44.09;94840.11;1691784;81;21126;-52
2022/06/16 08:42:54;;;;;;;6.17;4.92;;;;;;;22.51;42.80;94843.30;1693618;83;21054;-54
2022/06/16 08:45:38;;;;;;;5.75;3.05;;;;;;;22.53;43.16;94844.31;1718598;81;21050;-50
2022/06/16 08:48:36;;;;;;;6.17;2.30;;;;;;;22.64;42.69;94837.19;1702436;81;21706;-54
2022/06/16 08:51:42;;;;;;;8.30;2.60;;;;;;;22.82;42.50;94837.92;1677177;83;21129;-53
2022/06/16 08:54:40;;;;;;;9.70;3.33;;;;;;;22.97;41.42;94834.08;1693719;83;21070;-56
2022/06/16 08:57:21;;;;;;;2.77;2.10;;;;;;;22.86;41.49;94840.45;1682961;83;21116;-54
2022/06/16 08:59:58;;;;;;;6.87;2.52;;;;;;;22.68;41.92;94829.24;1687363;83;21007;-52
2022/06/16 09:02:47;;;;;;;4.90;2.50;;;;;;;22.61;42.19;94845.88;1712317;81;21490;-52
2022/06/16 09:05:31;;;;;;;9.43;3.02;;;;;;;22.55;42.63;94840.97;1724664;82;21234;-56
2022/06/16 09:08:18;;;;;;;5.00;2.87;;;;;;;22.49;44.08;94838.86;1672628;83;21122;-50
2022/06/16 09:11:18;;;;;;;2.83;2.05;;;;;;;22.53;42.93;94830.29;1718174;82;21093;-55
2022/06/16 09:14:12;;;;;;;3.95;2.27;;;;;;;22.63;43.49;94820.24;1744039;81;21093;-50
2022/06/16 09:17:02;;;;;;;8.28;2.47;;;;;;;22.80;42.53;94825.06;1715055;83;21083;-52
2022/06/16 09:19:54;;;;;;;5.75;2.33;;;;;;;23.03;42.10;94813.72;1729562;81;21497;-53
2022/06/16 09:22:40;;;;;;;5.90;2.00;;;;;;;23.31;41.62;94808.60;1688803;81;21579;-52
2022/06/16 09:25:33;;;;;;;9.40;3.02;;;;;;;23.51;39.65;94799.67;1742928;80;21152;-53
2022/06/16 09:28:17;;;;;;;4.35;1.87;;;;;;;23.54;38.01;94798.61;1749109;81;21103;-53
2022/06/16 09:30:45;;;;;;;6.03;2.15;;;;;;;23.43;38.29;94807.16;1741628;80;22127;-55
2022/06/16 09:33:25;;;;;;;6.15;2.98;;;;;;;23.29;38.15;94804.79;1743256;81;21150;-54
2022/06/16 09:36:00;;;;;;;8.15;2.50;;;;;;;23.20;38.79;94804.51;1744176;81;21042;-52
2022/06/16 09:38:49;;;;;;;6.05;2.22;;;;;;;23.16;39.28;94806.08;1742763;80;21675;-52
2022/06/16 09:44:32;;;;;;;7.67;2.25;;;;;;;23.61;37.62;94800.06;1742731;81;20978;-52
2022/06/16 09:47:04;;;;;;;3.67;2.10;;;;;;;23.92;37.76;94803.63;1710670;81;21223;-58
2022/06/16 09:49:39;;;;;;;8.58;3.05;;;;;;;24.19;37.17;94796.94;1712553;81;21222;-55
2022/06/16 09:52:24;;;;;;;6.17;2.15;;;;;;;24.37;36.65;94789.11;1747850;81;21038;-56
2022/06/16 09:54:55;;;;;;;4.50;2.37;;;;;;;24.51;35.81;94788.50;1743233;80;21130;-50
2022/06/16 09:57:40;;;;;;;6.72;2.58;;;;;;;24.61;35.50;94790.39;1722118;82;20982;-51
2022/06/16 10:00:18;;;;;;;7.03;2.70;;;;;;;24.77;35.84;94794.23;1694027;83;21151;-49
2022/06/16 10:03:02;;;;;;;6.85;2.52;;;;;;;24.96;36.17;94790.03;1729287;81;21074;-52
2022/06/16 10:05:37;;;;;;;5.10;1.70;;;;;;;25.11;34.71;94795.15;1744699;80;21122;-52
2022/06/16 10:08:19;;;;;;;3.75;1.67;;;;;;;25.21;33.26;94784.34;1735371;81;21344;-55
2022/06/16 10:11:05;;;;;;;3.25;2.08;;;;;;;25.23;33.98;94797.23;1742284;81;21002;-50
2022/06/16 10:13:43;;;;;;;1.98;1.60;;;;;;;25.24;33.32;94796.57;1738776;81;21334;-51
2022/06/16 10:16:17;;;;;;;2.05;1.40;;;;;;;25.28;33.39;94784.35;1712544;82;21045;-52
2022/06/16 10:18:46;;;;;;;1.90;1.45;;;;;;;25.40;32.98;94792.03;1702933;83;21074;-51
2022/06/16 10:21:16;;;;;;;8.25;2.00;;;;;;;25.49;33.23;94785.20;1741789;82;21034;-52
2022/06/16 10:23:59;;;;;;;4.50;1.52;;;;;;;25.62;34.01;94790.80;1744950;81;21077;-51
2022/06/16 10:26:26;;;;;;;7.92;1.80;;;;;;;25.75;32.36;94785.92;1745486;82;21230;-51
2022/06/16 10:29:23;;;;;;;4.97;1.85;;;;;;;25.73;33.50;94788.53;1743037;81;21516;-52
2022/06/16 10:31:51;;;;;;;4.28;2.05;;;;;;;25.74;32.75;94792.86;1745267;80;21026;-50
2022/06/16 10:34:39;;;;;;;6.67;2.47;;;;;;;25.80;32.49;94781.44;1717099;82;21095;-51
2022/06/16 10:37:16;;;;;;;18.05;3.70;;;;;;;25.90;32.31;94789.59;1735697;82;21037;-53
2022/06/16 10:40:12;;;;;;;5.35;2.27;;;;;;;26.09;32.05;94786.06;1719202;83;21252;-53
2022/06/16 10:42:48;;;;;;;9.08;1.65;;;;;;;26.29;32.23;94786.75;1748661;81;21012;-49
2022/06/16 10:45:25;;;;;;;17.77;8.95;;;;;;;26.60;30.85;94779.35;1750496;81;21051;-50
2022/06/16 10:48:12;;;;;;;13.80;3.65;;;;;;;26.63;30.89;94783.92;1750312;81;21029;-50
2022/06/16 10:50:50;;;;;;;12.00;2.72;;;;;;;26.59;30.66;94787.08;1745740;80;21078;-51
2022/06/16 10:53:35;;;;;;;15.60;4.42;;;;;;;26.18;31.55;94794.72;1693715;83;21389;-49
2022/06/16 10:56:21;;;;;;;11.00;3.47;;;;;;;25.80;31.99;94789.91;1709975;83;21023;-51
2022/06/16 10:59:18;;;;;;;13.93;2.30;;;;;;;25.49;32.71;94793.66;1744216;81;21010;-52
2022/06/16 11:02:03;;;;;;;6.72;2.27;;;;;;;25.23;33.25;94799.28;1744933;81;21024;-52
2022/06/16 11:04:39;;;;;;;4.42;2.00;;;;;;;25.69;32.50;94796.54;1730040;80;21093;-50
2022/06/16 11:07:09;;;;;;;10.78;3.42;;;;;;;26.22;32.56;94804.36;1692289;83;21213;-54
2022/06/16 11:09:45;;;;;;;8.63;3.50;;;;;;;26.77;33.00;94801.64;1682488;83;22193;-56
2022/06/16 11:12:17;;;;;;;5.55;2.80;;;;;;;27.31;34.00;94796.51;1698367;81;21735;-50
2022/06/16 11:14:57;;;;;;;10.90;2.67;;;;;;;27.31;35.17;94788.03;1720497;83;20970;-52
2022/06/16 11:17:37;;;;;;;4.85;2.62;;;;;;;27.15;36.18;94790.02;1717548;83;21036;-50
2022/06/16 11:20:16;;;;;;;7.58;2.37;;;;;;;26.99;33.51;94793.23;1749199;81;21256;-53
2022/06/16 11:22:48;;;;;;;8.55;2.67;;;;;;;26.68;31.59;94790.81;1731500;81;21063;-56
2022/06/16 11:25:32;;;;;;;3.67;2.37;;;;;;;26.61;31.91;94792.92;1749986;81;21050;-51
2022/06/16 11:28:10;;;;;;;5.25;2.37;;;;;;;27.18;36.76;94791.72;1745953;80;21156;-52
2022/06/16 11:30:48;;;;;;;4.83;2.77;;;;;;;27.28;37.85;94789.92;1741002;81;21034;-53
2022/06/16 11:36:43;;;;;;;5.15;2.72;;;;;;;26.65;39.08;94781.30;1708053;83;20987;-53
2022/06/16 11:39:27;;;;;;;9.73;2.72;;;;;;;26.14;40.21;94786.58;1731088;82;21111;-54
2022/06/16 11:41:57;;;;;;;3.95;2.42;;;;;;;25.69;40.46;94787.34;1746398;80;21073;-52
2022/06/16 11:44:52;;;;;;;6.42;2.72;;;;;;;25.20;40.98;94782.06;1729159;80;21041;-56
2022/06/16 11:47:46;;;;;;;7.40;3.02;;;;;;;24.79;41.70;94788.82;1748517;81;21553;-55
2022/06/16 11:50:34;;;;;;;4.67;2.80;;;;;;;24.42;42.65;94784.03;1737417;80;21032;-51
2022/06/16 11:53:22;;;;;;;5.53;2.85;;;;;;;24.20;43.48;94787.87;1745971;80;21533;-52
2022/06/16 11:56:02;;;;;;;3.65;2.62;;;;;;;24.05;43.78;94786.18;1749660;81;21537;-55
2022/06/16 11:58:44;;;;;;;4.22;2.30;;;;;;;24.38;43.15;94783.59;1747411;80;21092;-57
2022/06/16 12:01:19;;;;;;;6.30;3.00;;;;;;;25.23;44.29;94771.11;1741145;80;21526;-54
2022/06/16 12:04:15;;;;;;;4.22;2.20;;;;;;;25.64;41.82;94772.72;1711095;81;21125;-54
2022/06/16 12:07:24;;;;;;;6.47;2.70;;;;;;;25.82;41.26;94773.23;1725062;81;21114;-56
2022/06/16 12:10:02;;;;;;;4.40;2.80;;;;;;;25.82;41.16;94778.86;1698997;82;21888;-54
2022/06/16 12:12:38;;;;;;;10.28;4.00;;;;;;;26.09;40.88;94764.17;1686272;84;21562;-55
2022/06/16 12:15:21;;;;;;;8.53;3.02;;;;;;;25.95;40.45;94767.66;1697053;83;21258;-55
2022/06/16 12:18:09;;;;;;;6.75;3.02;;;;;;;25.85;41.01;94777.80;1691333;82;21124;-53
2022/06/16 12:20:48;;;;;;;10.93;3.17;;;;;;;26.27;42.32;94776.66;1708481;82;21073;-51
2022/06/16 12:23:24;;;;;;;14.13;2.83;;;;;;;27.16;41.61;94771.74;1716099;83;21118;-52
2022/06/16 12:26:16;;;;;;;4.53;2.50;;;;;;;28.17;40.24;94761.95;1694919;83;21117;-54
2022/06/16 12:29:05;;;;;;;4.80;3.00;;;;;;;29.06;37.46;94752.09;1708262;82;21794;-53
2022/06/16 12:32:05;;;;;;;3.98;2.30;;;;;;;29.61;36.99;94755.14;1712086;82;22123;-50